Time;durP1;ratioP1;P1;durP2;ratioP2;P2;SDS_P1;SDS_P2;PMS_P1;PMS_P2;Temp;Humidity;BMP_temperature;BMP_pressure;BME280_temperature;BME280_humidity;BME280_pressure;Samples;Min_cycle;Max_cycle;Signal;HPM_P1;HPM_P2
2022/12/25 00:01:23;;;;;;;5.20;2.30;;;;;;;10.92;66.58;97143.78;5069168;28;20199;-79
2022/12/25 00:03:51;;;;;;;2.70;2.00;;;;;;;10.84;66.17;97140.69;5069386;28;20295;-73
2022/12/25 00:06:19;;;;;;;2.70;1.90;;;;;;;10.92;64.70;97151.56;5051464;28;20222;-78
2022/12/25 00:08:45;;;;;;;2.77;2.50;;;;;;;10.72;64.96;97116.16;5069137;28;20276;-78
2022/12/25 00:11:18;;;;;;;2.90;2.60;;;;;;;10.90;64.28;97166.34;5069281;28;20509;-81
2022/12/25 00:13:46;;;;;;;2.47;2.20;;;;;;;10.84;64.87;97176.97;5069169;28;20627;-78
2022/12/25 00:16:21;;;;;;;3.67;2.90;;;;;;;10.81;64.68;97180.53;5068840;28;20203;-82
2022/12/25 00:18:50;;;;;;;3.93;2.77;;;;;;;10.51;64.94;97140.44;5068922;28;20192;-82
2022/12/25 00:21:18;;;;;;;3.70;2.50;;;;;;;10.79;64.30;97192.72;5069278;28;20225;-82
2022/12/25 00:23:46;;;;;;;4.63;2.83;;;;;;;10.81;65.21;97200.41;5068985;28;20222;-81
2022/12/25 00:26:16;;;;;;;4.20;2.53;;;;;;;10.89;65.06;97201.75;5051379;28;20197;-78
2022/12/25 00:28:43;;;;;;;4.10;2.70;;;;;;;10.91;65.09;97210.31;5069022;28;20262;-82
2022/12/25 00:31:14;;;;;;;3.57;2.53;;;;;;;10.72;64.78;97199.06;5068737;28;20190;-78
2022/12/25 00:33:43;;;;;;;4.13;2.70;;;;;;;10.82;64.93;97210.69;5069550;28;20636;-83
2022/12/25 00:36:12;;;;;;;4.30;2.70;;;;;;;10.81;64.19;97206.44;5068331;28;20635;-82
2022/12/25 00:38:40;;;;;;;3.83;2.70;;;;;;;10.93;63.71;97218.00;5068990;28;20198;-80
2022/12/25 00:44:12;;;;;;;4.83;2.90;;;;;;;10.84;64.73;97206.28;5068463;28;20184;-82
2022/12/25 00:46:40;;;;;;;3.53;2.60;;;;;;;10.94;64.44;97212.75;5069040;28;20243;-82
2022/12/25 00:49:09;;;;;;;4.27;2.50;;;;;;;10.89;64.81;97219.88;5069922;28;20711;-83
2022/12/25 00:51:36;;;;;;;5.00;3.03;;;;;;;10.90;64.33;97212.97;5068900;28;20191;-82
2022/12/25 00:54:03;;;;;;;6.57;2.83;;;;;;;10.75;64.82;97198.94;5068475;28;20221;-81
2022/12/25 00:56:30;;;;;;;6.43;3.10;;;;;;;10.79;64.82;97210.84;5068232;28;20213;-79
2022/12/25 00:58:57;;;;;;;6.17;2.70;;;;;;;10.77;65.07;97202.31;5068980;28;20222;-80
2022/12/25 01:01:24;;;;;;;5.40;2.60;;;;;;;10.87;64.32;97203.56;5068193;28;20201;-80
2022/12/25 01:03:51;;;;;;;3.50;2.33;;;;;;;10.80;64.65;97206.50;5069092;28;20242;-75
2022/12/25 01:06:17;;;;;;;6.53;3.30;;;;;;;10.79;64.87;97203.06;5068859;28;20651;-81
2022/12/25 01:11:31;;;;;;;3.17;2.87;;;;;;;10.78;64.85;97211.75;5068545;28;20194;-78
2022/12/25 01:13:57;;;;;;;4.50;2.97;;;;;;;10.83;63.68;97203.78;5068172;28;20655;-79
2022/12/25 01:16:25;;;;;;;6.87;2.87;;;;;;;10.80;64.11;97211.69;5068247;28;20564;-76
2022/12/25 01:18:52;;;;;;;5.57;2.80;;;;;;;10.73;64.73;97213.72;5067755;28;20194;-76
2022/12/25 01:21:20;;;;;;;4.37;3.00;;;;;;;10.79;64.22;97221.19;5068492;28;20286;-78
2022/12/25 01:23:49;;;;;;;7.40;3.40;;;;;;;10.79;64.80;97216.03;5067464;28;20229;-78
2022/12/25 01:26:17;;;;;;;3.87;3.00;;;;;;;10.76;64.82;97212.75;5067923;28;20195;-80
2022/12/25 01:28:45;;;;;;;5.00;3.47;;;;;;;10.63;65.31;97200.28;5067924;28;20198;-80
2022/12/25 01:31:14;;;;;;;4.03;2.97;;;;;;;10.77;65.02;97214.41;5067944;28;20744;-79
2022/12/25 01:33:43;;;;;;;4.70;3.33;;;;;;;10.82;64.43;97209.88;5067843;28;20199;-77
2022/12/25 01:36:30;;;;;;;5.30;3.63;;;;;;;10.79;64.57;97215.19;5049505;28;20207;-76
2022/12/25 01:38:57;;;;;;;4.97;3.63;;;;;;;10.76;64.89;97210.16;5067864;28;20229;-75
2022/12/25 01:41:24;;;;;;;4.00;2.73;;;;;;;10.82;64.24;97218.47;5067256;28;20314;-74
2022/12/25 01:44:06;;;;;;;5.73;3.10;;;;;;;10.88;64.16;97204.41;5067555;28;20235;-77
2022/12/25 01:46:34;;;;;;;4.73;3.23;;;;;;;10.84;64.40;97208.88;5067448;28;20202;-77
2022/12/25 01:49:07;;;;;;;4.33;2.90;;;;;;;10.74;64.63;97217.97;5067249;28;20268;-79
2022/12/25 01:51:37;;;;;;;2.83;2.40;;;;;;;10.86;64.02;97212.25;5067504;28;20205;-76
2022/12/25 01:54:08;;;;;;;4.23;3.00;;;;;;;10.85;64.01;97209.72;5067034;28;20179;-77
2022/12/25 01:56:38;;;;;;;4.53;2.20;;;;;;;10.83;63.81;97212.38;5067334;28;20290;-76
2022/12/25 01:59:07;;;;;;;4.07;2.87;;;;;;;10.77;64.03;97215.25;5067020;28;20215;-74
2022/12/25 02:01:35;;;;;;;4.53;2.67;;;;;;;10.67;64.45;97195.84;5067406;28;20197;-74
2022/12/25 02:04:12;;;;;;;4.00;3.07;;;;;;;10.78;64.28;97197.97;5067045;28;20269;-78
2022/12/25 02:06:40;;;;;;;3.63;2.73;;;;;;;10.76;63.96;97207.56;5067011;28;20254;-77
2022/12/25 02:09:07;;;;;;;3.27;2.73;;;;;;;10.51;64.34;97168.91;5067519;28;20190;-75
2022/12/25 02:14:19;;;;;;;5.07;2.90;;;;;;;10.79;63.96;97203.06;5066899;28;20203;-73
2022/12/25 02:16:52;;;;;;;4.20;2.47;;;;;;;10.81;63.86;97206.44;5066628;28;20192;-77
2022/12/25 02:19:28;;;;;;;3.03;2.43;;;;;;;10.75;63.37;97211.88;5066987;28;20198;-73
2022/12/25 02:22:27;;;;;;;3.90;2.90;;;;;;;10.76;63.58;97218.72;5067404;28;20601;-75
2022/12/25 02:25:19;;;;;;;5.30;2.83;;;;;;;10.77;64.14;97220.44;5022688;28;20186;-76
2022/12/25 02:27:58;;;;;;;3.57;2.63;;;;;;;10.73;64.92;97220.63;5066943;28;20198;-75
2022/12/25 02:30:27;;;;;;;6.10;2.63;;;;;;;10.67;64.94;97220.91;5067085;28;20202;-75
2022/12/25 02:35:54;;;;;;;4.23;2.40;;;;;;;10.77;63.75;97228.19;5066693;28;20221;-77
2022/12/25 02:38:34;;;;;;;4.33;2.60;;;;;;;10.72;64.63;97229.28;5066553;28;20203;-76
2022/12/25 02:41:09;;;;;;;3.73;2.70;;;;;;;10.69;64.61;97235.47;5066435;28;20245;-78
2022/12/25 03:12:04;;;;;;;5.03;3.50;;;;;;;10.48;65.28;97224.28;5066227;28;20198;-75
2022/12/25 03:17:16;;;;;;;4.63;3.53;;;;;;;10.49;65.10;97243.22;5066472;28;20283;-76
2022/12/25 03:28:04;;;;;;;4.47;3.03;;;;;;;10.42;64.89;97244.41;5066212;28;20220;-79
2022/12/25 03:31:12;;;;;;;6.37;3.33;;;;;;;10.47;65.18;97255.38;5066399;28;20221;-79
2022/12/25 04:38:35;;;;;;;6.03;3.73;;;;;;;10.00;64.45;97296.13;5068553;28;20687;-79
2022/12/25 04:41:03;;;;;;;5.77;3.10;;;;;;;9.88;64.55;97300.91;5068840;28;20236;-78
2022/12/25 04:43:30;;;;;;;5.63;3.30;;;;;;;9.91;64.60;97309.44;5068454;28;20226;-78
2022/12/25 04:45:59;;;;;;;5.10;2.60;;;;;;;9.94;63.84;97318.78;5068512;28;20201;-81
2022/12/25 04:48:28;;;;;;;4.83;2.70;;;;;;;9.93;64.54;97309.34;5069290;28;20203;-81
2022/12/25 04:50:55;;;;;;;4.53;2.90;;;;;;;9.95;64.21;97305.81;5068708;28;20191;-79
2022/12/25 04:53:23;;;;;;;5.13;3.30;;;;;;;9.89;64.46;97319.00;5069002;28;20203;-79
2022/12/25 04:55:59;;;;;;;3.90;2.23;;;;;;;9.85;63.80;97304.47;5050264;28;20190;-80
2022/12/25 04:58:26;;;;;;;6.07;3.23;;;;;;;9.88;64.23;97316.44;5068758;28;20201;-78
2022/12/25 05:01:10;;;;;;;4.97;2.40;;;;;;;9.88;64.12;97314.69;5068369;28;20285;-82
2022/12/25 05:03:37;;;;;;;4.67;3.00;;;;;;;9.84;64.59;97321.75;5067813;28;20427;-79
2022/12/25 05:06:05;;;;;;;4.07;2.70;;;;;;;9.79;64.84;97326.25;5068875;28;20193;-79
2022/12/25 05:08:34;;;;;;;2.77;2.37;;;;;;;9.81;64.48;97313.25;5068593;28;20197;-78
2022/12/25 05:11:06;;;;;;;4.43;3.50;;;;;;;9.80;64.19;97315.00;5068211;28;20201;-78
2022/12/25 05:13:33;;;;;;;4.73;3.00;;;;;;;9.74;64.63;97319.56;5068256;28;20226;-78
2022/12/25 05:16:04;;;;;;;5.40;2.80;;;;;;;9.73;64.35;97316.13;5068086;28;20604;-77
2022/12/25 05:18:31;;;;;;;5.47;2.73;;;;;;;9.68;64.32;97317.22;5068174;28;20207;-79
2022/12/25 05:20:58;;;;;;;4.70;2.87;;;;;;;9.59;64.22;97317.56;5067785;28;20189;-80
2022/12/25 05:23:25;;;;;;;5.47;2.87;;;;;;;9.62;64.82;97330.38;5067812;28;20275;-81
2022/12/25 05:25:52;;;;;;;6.93;2.90;;;;;;;9.67;64.48;97326.72;5068096;28;20254;-79
2022/12/25 05:28:19;;;;;;;3.67;2.43;;;;;;;9.57;65.21;97329.69;5068511;28;20202;-79
2022/12/25 05:30:46;;;;;;;5.60;2.63;;;;;;;9.52;65.44;97336.78;5074892;28;20213;-78
2022/12/25 05:33:13;;;;;;;5.57;2.97;;;;;;;9.55;65.26;97350.44;5081186;28;20236;-79
2022/12/25 05:35:40;;;;;;;5.80;2.87;;;;;;;9.49;65.38;97339.47;5088072;28;20181;-81
2022/12/25 05:38:07;;;;;;;5.27;3.07;;;;;;;9.48;65.48;97335.22;5087795;28;20313;-78
2022/12/25 05:40:38;;;;;;;6.47;3.30;;;;;;;9.42;65.42;97332.81;5087458;28;20275;-77
2022/12/25 05:43:06;;;;;;;4.63;2.83;;;;;;;9.36;65.37;97340.81;5087677;28;20220;-78
2022/12/25 05:45:33;;;;;;;5.40;3.83;;;;;;;9.37;65.87;97335.59;5087820;28;20216;-80
2022/12/25 05:48:00;;;;;;;4.77;2.97;;;;;;;9.30;65.55;97349.63;5087447;28;20676;-79
2022/12/25 05:50:27;;;;;;;5.63;3.07;;;;;;;9.34;65.87;97351.22;5087674;28;20192;-76
2022/12/25 05:53:07;;;;;;;3.93;3.13;;;;;;;9.30;65.53;97359.97;5087411;28;20212;-78
2022/12/25 05:55:36;;;;;;;4.43;2.90;;;;;;;9.31;65.58;97361.66;5087444;28;20196;-76
2022/12/25 05:58:04;;;;;;;6.87;3.23;;;;;;;9.30;65.44;97359.97;5087500;28;20224;-79
2022/12/25 06:00:32;;;;;;;8.70;3.40;;;;;;;9.28;65.91;97359.19;5087528;28;20180;-75
2022/12/25 06:02:59;;;;;;;9.07;3.80;;;;;;;9.37;65.82;97374.38;5087433;28;20231;-82
2022/12/25 06:05:26;;;;;;;10.47;3.93;;;;;;;9.36;65.44;97377.84;5087068;28;20228;-84
2022/12/25 06:07:54;;;;;;;7.03;3.17;;;;;;;9.27;65.85;97367.00;5087332;28;20718;-83
2022/12/25 06:10:20;;;;;;;5.17;3.20;;;;;;;9.34;66.11;97384.81;5086966;28;20208;-83
2022/12/25 06:12:50;;;;;;;9.10;3.77;;;;;;;9.31;66.02;97387.50;5086795;28;20631;-78
2022/12/25 06:15:17;;;;;;;9.40;3.90;;;;;;;9.29;66.13;97384.16;5086609;28;20621;-79
2022/12/25 06:17:43;;;;;;;7.57;3.90;;;;;;;9.28;65.74;97374.69;5086821;28;20200;-79
2022/12/25 06:20:10;;;;;;;4.20;2.87;;;;;;;9.44;66.05;97395.66;5087164;28;20189;-76
2022/12/25 06:22:37;;;;;;;5.50;3.23;;;;;;;9.41;66.22;97403.53;5086960;28;20224;-77
2022/12/25 06:25:05;;;;;;;5.90;3.53;;;;;;;9.48;65.84;97412.78;5087315;28;20692;-76
2022/12/25 06:27:32;;;;;;;5.13;3.13;;;;;;;9.45;65.38;97413.72;5087097;28;20291;-80
2022/12/25 06:29:59;;;;;;;4.70;3.10;;;;;;;9.19;66.04;97398.25;5089361;28;20200;-76
2022/12/25 06:32:26;;;;;;;6.87;3.87;;;;;;;9.37;65.58;97427.78;5070045;28;20277;-74
2022/12/25 06:34:52;;;;;;;8.30;4.10;;;;;;;9.40;65.95;97433.69;5073594;28;20212;-76
2022/12/25 06:37:19;;;;;;;3.73;3.07;;;;;;;9.40;65.93;97435.44;5086540;28;20194;-74
2022/12/25 06:39:47;;;;;;;13.20;3.73;;;;;;;9.49;65.55;97429.94;5086477;28;20279;-76
2022/12/25 06:42:13;;;;;;;6.97;3.77;;;;;;;9.48;65.76;97434.28;5086906;28;20214;-78
2022/12/25 06:44:40;;;;;;;7.43;3.90;;;;;;;9.50;65.85;97442.81;5086096;28;20235;-78
2022/12/25 06:47:07;;;;;;;6.13;3.83;;;;;;;9.29;66.35;97443.59;5066207;28;20232;-76
2022/12/25 06:49:34;;;;;;;6.57;3.40;;;;;;;9.31;66.17;97444.38;5077108;28;20204;-80
2022/12/25 06:52:01;;;;;;;4.53;3.27;;;;;;;9.35;65.92;97438.19;5086349;28;20196;-78
2022/12/25 06:54:28;;;;;;;5.27;3.60;;;;;;;9.42;65.95;97455.16;5086580;28;20224;-80
2022/12/25 06:56:55;;;;;;;10.93;4.00;;;;;;;9.48;66.15;97454.94;5086627;28;20196;-81
2022/12/25 06:59:22;;;;;;;15.07;4.73;;;;;;;9.59;66.00;97458.00;5080838;28;20300;-80
2022/12/25 07:01:53;;;;;;;5.60;4.60;;;;;;;9.72;65.46;97459.28;5070834;28;20236;-82
2022/12/25 07:04:30;;;;;;;9.47;4.40;;;;;;;9.92;66.21;97468.91;5066236;28;20224;-77
2022/12/25 07:06:58;;;;;;;7.50;4.60;;;;;;;10.05;65.87;97477.06;5066340;28;20214;-78
2022/12/25 07:09:34;;;;;;;11.30;4.50;;;;;;;10.23;64.26;97479.84;5066504;28;20193;-78
2022/12/25 07:12:18;;;;;;;10.77;4.33;;;;;;;10.23;64.58;97479.00;5079031;28;20295;-82
2022/12/25 07:14:47;;;;;;;6.27;3.40;;;;;;;10.43;63.74;97479.94;5086041;28;20215;-82
2022/12/25 07:17:15;;;;;;;5.30;3.43;;;;;;;10.53;63.62;97481.25;5086491;28;20699;-79
2022/12/25 07:19:42;;;;;;;7.63;3.97;;;;;;;10.60;63.04;97492.22;5086233;28;20200;-79
2022/12/25 07:22:12;;;;;;;6.10;3.53;;;;;;;10.63;63.83;97486.94;5086372;28;20209;-80
2022/12/25 07:24:39;;;;;;;4.77;3.67;;;;;;;10.55;63.64;97483.81;5069830;28;20324;-77
2022/12/25 07:27:07;;;;;;;6.23;3.40;;;;;;;10.74;63.21;97484.75;5089772;28;20193;-76
2022/12/25 07:29:34;;;;;;;3.83;2.73;;;;;;;10.74;62.91;97483.94;5090432;28;20739;-76
2022/12/25 07:32:01;;;;;;;5.93;3.00;;;;;;;10.75;63.36;97490.78;5071839;28;20258;-77
2022/12/25 07:34:28;;;;;;;4.70;3.20;;;;;;;10.81;63.25;97504.34;5090566;28;20249;-76
2022/12/25 07:36:55;;;;;;;7.07;3.43;;;;;;;10.91;62.70;97512.59;5089908;28;20203;-76
2022/12/25 07:39:22;;;;;;;4.73;2.60;;;;;;;10.91;62.55;97495.31;5090284;28;20198;-77
2022/12/25 07:41:50;;;;;;;3.70;2.50;;;;;;;10.97;62.49;97504.56;5089695;28;20313;-76
2022/12/25 07:44:17;;;;;;;3.10;2.80;;;;;;;10.98;61.88;97494.19;5089907;28;20226;-75
2022/12/25 07:46:44;;;;;;;4.37;2.60;;;;;;;10.98;62.10;97495.91;5090254;28;20625;-77
2022/12/25 07:49:11;;;;;;;5.30;2.20;;;;;;;11.02;60.07;97528.56;5089290;28;20208;-75
2022/12/25 07:51:38;;;;;;;5.20;2.10;;;;;;;11.00;60.37;97510.50;5089627;28;20190;-77
2022/12/25 07:54:05;;;;;;;4.77;2.20;;;;;;;11.11;60.11;97534.22;5089472;28;20189;-74
2022/12/25 07:56:32;;;;;;;4.80;2.30;;;;;;;11.16;59.64;97531.47;5090321;28;20589;-78
2022/12/25 07:58:59;;;;;;;3.70;2.10;;;;;;;11.18;59.58;97527.06;5071938;28;20616;-78
2022/12/25 08:01:27;;;;;;;4.07;2.70;;;;;;;11.24;59.09;97539.75;5089575;28;20228;-80
2022/12/25 08:03:59;;;;;;;3.67;2.10;;;;;;;11.21;59.08;97540.72;5089003;28;20228;-76
2022/12/25 08:06:31;;;;;;;2.77;2.07;;;;;;;11.35;58.77;97559.16;5088989;28;20212;-76
2022/12/25 08:09:09;;;;;;;4.87;2.33;;;;;;;11.40;58.30;97561.56;5089382;28;20752;-79
2022/12/25 08:11:36;;;;;;;4.10;2.20;;;;;;;11.36;58.15;97557.41;5070495;28;20625;-79
2022/12/25 08:14:07;;;;;;;4.50;2.67;;;;;;;11.51;58.04;97574.09;5089264;28;20277;-79
2022/12/25 08:16:35;;;;;;;4.17;2.57;;;;;;;11.50;57.84;97564.66;5088993;28;20194;-79
2022/12/25 08:19:02;;;;;;;5.37;3.50;;;;;;;11.56;58.54;97582.56;5088769;28;20282;-79
2022/12/25 08:21:28;;;;;;;6.00;2.83;;;;;;;11.61;57.99;97578.00;5089222;28;20192;-78
2022/12/25 08:23:58;;;;;;;6.10;3.43;;;;;;;11.56;58.74;97567.00;5088445;28;20770;-79
2022/12/25 08:26:25;;;;;;;4.07;2.50;;;;;;;11.72;58.64;97581.91;5088194;28;20287;-78
2022/12/25 08:28:52;;;;;;;6.47;2.67;;;;;;;11.64;58.30;97580.50;5088883;28;20202;-77
2022/12/25 08:31:24;;;;;;;3.47;2.40;;;;;;;11.69;58.22;97579.41;5075884;28;20206;-74
2022/12/25 08:33:54;;;;;;;3.23;2.73;;;;;;;11.72;58.36;97584.50;5062973;28;20198;-74
2022/12/25 08:36:22;;;;;;;4.47;2.20;;;;;;;11.90;57.85;97588.06;5086947;28;20278;-76
2022/12/25 08:38:49;;;;;;;3.33;2.53;;;;;;;12.02;57.63;97592.72;5069517;28;20637;-77
2022/12/25 08:41:16;;;;;;;4.10;2.40;;;;;;;11.86;57.50;97586.50;5067946;28;20224;-76
2022/12/25 08:43:44;;;;;;;6.10;2.40;;;;;;;11.84;57.70;97575.34;5068853;28;20199;-76
2022/12/25 08:46:11;;;;;;;7.17;3.20;;;;;;;11.82;57.82;97580.59;5067817;28;20293;-77
2022/12/25 08:48:41;;;;;;;5.63;3.07;;;;;;;11.96;57.52;97590.38;5068134;28;20186;-77
2022/12/25 08:51:14;;;;;;;4.60;2.40;;;;;;;11.58;58.42;97565.19;5067325;28;20178;-77
2022/12/25 08:53:46;;;;;;;4.07;2.10;;;;;;;11.75;58.43;97604.25;5068056;28;20221;-77
2022/12/25 08:56:14;;;;;;;5.13;2.33;;;;;;;11.79;58.08;97574.66;5067546;28;20199;-77
2022/12/25 08:58:41;;;;;;;3.77;2.23;;;;;;;11.91;57.65;97590.56;5052644;28;20232;-76
2022/12/25 09:01:09;;;;;;;2.63;2.03;;;;;;;11.76;57.27;97574.81;5073028;28;20198;-76
2022/12/25 09:03:37;;;;;;;4.00;2.73;;;;;;;11.89;56.85;97583.78;5067531;28;20191;-77
2022/12/25 09:06:09;;;;;;;5.67;3.20;;;;;;;11.97;56.43;97558.34;5067388;28;20571;-78
2022/12/25 09:08:37;;;;;;;5.63;2.10;;;;;;;11.96;56.76;97567.88;5072186;28;20204;-78
2022/12/25 09:11:14;;;;;;;3.27;2.23;;;;;;;11.83;56.46;97571.88;5087372;28;20650;-78
2022/12/25 09:13:41;;;;;;;3.57;2.07;;;;;;;11.72;57.48;97568.06;5087679;28;20209;-77
2022/12/25 09:16:12;;;;;;;4.53;2.83;;;;;;;11.70;56.74;97538.75;5087208;28;20629;-78
2022/12/25 09:18:39;;;;;;;3.57;2.50;;;;;;;11.98;56.64;97567.81;5072296;28;20198;-78
2022/12/25 09:21:10;;;;;;;4.33;2.53;;;;;;;12.12;57.00;97568.03;5076730;28;20317;-78
2022/12/25 09:23:37;;;;;;;8.03;2.50;;;;;;;11.92;56.89;97565.47;5069345;28;20204;-77
2022/12/25 09:26:05;;;;;;;4.03;2.13;;;;;;;11.74;57.05;97579.22;5083662;28;20381;-78
2022/12/25 09:28:33;;;;;;;4.67;2.10;;;;;;;11.79;57.08;97580.72;5067328;28;20247;-75
2022/12/25 09:31:00;;;;;;;2.53;1.93;;;;;;;12.02;56.90;97577.13;5077248;28;20265;-78
2022/12/25 09:33:27;;;;;;;2.23;1.90;;;;;;;12.05;55.86;97583.06;5052427;28;20232;-76
2022/12/25 09:35:56;;;;;;;3.17;2.00;;;;;;;11.66;55.60;97531.97;5067233;28;20204;-77
2022/12/25 09:38:24;;;;;;;3.33;2.20;;;;;;;12.00;55.93;97558.19;5074179;28;20490;-77
2022/12/25 09:41:36;;;;;;;2.93;1.90;;;;;;;12.06;55.87;97570.91;5087152;28;20238;-76
2022/12/25 09:44:08;;;;;;;3.23;2.93;;;;;;;12.12;53.79;97562.84;5084584;28;20199;-77
2022/12/25 09:46:42;;;;;;;6.20;2.43;;;;;;;12.05;55.13;97577.03;5067351;28;20695;-77
2022/12/25 09:49:37;;;;;;;2.60;1.97;;;;;;;12.09;55.84;97574.25;5066600;28;20197;-77
2022/12/25 09:52:10;;;;;;;4.90;2.37;;;;;;;12.13;54.56;97559.38;5066523;28;20225;-77
2022/12/25 09:54:56;;;;;;;3.63;2.13;;;;;;;12.21;54.84;97563.31;5075162;28;20770;-77
2022/12/25 09:57:24;;;;;;;3.20;2.20;;;;;;;12.23;55.32;97552.84;5084721;28;20208;-79
2022/12/25 09:59:53;;;;;;;2.27;2.00;;;;;;;12.32;54.87;97565.44;5086651;28;20202;-77
2022/12/25 10:02:58;;;;;;;3.67;2.10;;;;;;;12.26;54.87;97550.97;5067075;28;20220;-75
2022/12/25 10:05:43;;;;;;;2.60;1.93;;;;;;;12.38;53.47;97559.97;5076921;28;20229;-78
2022/12/25 10:08:35;;;;;;;3.73;2.67;;;;;;;12.51;55.22;97547.28;5059834;28;20587;-77
2022/12/25 10:11:13;;;;;;;3.10;2.47;;;;;;;12.69;55.52;97557.69;5066384;28;20689;-77
2022/12/25 10:13:46;;;;;;;4.23;2.80;;;;;;;12.81;53.13;97558.88;5066640;28;20199;-77
2022/12/25 10:16:32;;;;;;;5.23;2.43;;;;;;;12.62;52.65;97561.47;5066899;28;20210;-80
2022/12/25 10:19:53;;;;;;;2.97;1.77;;;;;;;12.42;52.71;97564.13;5078778;28;20246;-78
2022/12/25 10:22:35;;;;;;;4.27;2.30;;;;;;;12.18;53.22;97541.81;4984414;28;20679;-77
2022/12/25 10:25:05;;;;;;;4.60;2.33;;;;;;;12.37;52.61;97568.66;5057057;28;20232;-76
2022/12/25 10:27:40;;;;;;;4.00;2.93;;;;;;;12.44;52.78;97564.91;5071747;28;20203;-79
2022/12/25 10:30:20;;;;;;;3.87;2.50;;;;;;;12.56;51.86;97564.34;5074772;28;20800;-77
2022/12/25 10:32:48;;;;;;;3.80;2.37;;;;;;;12.61;51.86;97566.72;5066521;28;20249;-77
2022/12/25 10:35:55;;;;;;;3.73;2.50;;;;;;;12.55;52.28;97559.22;5066104;28;20202;-77
2022/12/25 10:38:43;;;;;;;2.93;1.67;;;;;;;12.56;51.82;97559.16;5047427;28;20640;-76
2022/12/25 10:41:19;;;;;;;4.00;2.40;;;;;;;12.74;51.69;97571.28;5053200;28;20233;-75
2022/12/25 10:43:52;;;;;;;3.27;1.87;;;;;;;12.78;50.95;97567.63;5070819;28;20739;-75
2022/12/25 10:46:22;;;;;;;2.73;2.30;;;;;;;12.83;51.54;97557.88;5083627;28;20230;-75
2022/12/25 10:48:59;;;;;;;3.57;2.10;;;;;;;12.91;50.74;97552.31;5071476;28;20211;-77
2022/12/25 10:51:32;;;;;;;2.97;1.90;;;;;;;12.86;50.67;97549.06;5068646;28;20215;-75
2022/12/25 10:54:01;;;;;;;5.30;3.30;;;;;;;12.80;51.54;97537.22;5075027;28;20211;-77
2022/12/25 10:56:31;;;;;;;4.17;2.17;;;;;;;12.90;50.44;97542.84;5081218;28;20206;-77
2022/12/25 10:59:10;;;;;;;3.53;2.90;;;;;;;12.99;51.22;97540.66;5075272;28;20199;-73
2022/12/25 11:01:44;;;;;;;4.53;2.23;;;;;;;12.61;50.51;97505.19;5068929;28;20283;-75
2022/12/25 11:04:27;;;;;;;4.60;2.37;;;;;;;12.72;51.52;97534.13;5065685;28;20309;-76
2022/12/25 11:07:05;;;;;;;6.20;3.77;;;;;;;12.96;51.34;97545.16;5085040;28;20232;-76
2022/12/25 11:09:33;;;;;;;3.10;1.83;;;;;;;13.04;50.63;97541.28;5086447;28;20211;-80
2022/12/25 11:12:00;;;;;;;2.93;1.97;;;;;;;13.12;51.35;97543.53;5079191;28;20214;-80
2022/12/25 11:14:27;;;;;;;3.17;2.33;;;;;;;13.02;50.52;97537.06;5080157;28;20208;-79
2022/12/25 11:17:06;;;;;;;2.87;2.13;;;;;;;13.10;49.80;97528.94;5086838;28;20785;-79
2022/12/25 11:19:33;;;;;;;31.07;20.60;;;;;;;12.98;49.19;97515.56;5087121;28;20255;-82
2022/12/25 11:22:20;;;;;;;6.27;3.73;;;;;;;13.23;50.02;97533.44;5087047;28;20706;-82
2022/12/25 11:24:47;;;;;;;3.00;2.57;;;;;;;13.33;49.12;97528.66;5075628;28;20416;-84
2022/12/25 11:27:26;;;;;;;2.90;2.40;;;;;;;13.47;49.63;97537.47;5083711;28;20207;-83
2022/12/25 11:30:00;;;;;;;5.33;2.43;;;;;;;13.39;49.34;97539.63;5086894;28;20282;-80
2022/12/25 11:32:36;;;;;;;3.90;2.53;;;;;;;13.30;50.15;97536.59;5086176;28;20199;-78
2022/12/25 11:35:10;;;;;;;3.43;2.40;;;;;;;13.31;49.33;97540.91;5071724;28;20658;-82
2022/12/25 11:37:42;;;;;;;3.13;2.07;;;;;;;13.45;51.76;97546.28;5069505;28;20193;-78
2022/12/25 11:40:43;;;;;;;3.67;2.73;;;;;;;13.38;49.80;97537.06;5086227;28;20693;-83
2022/12/25 11:43:52;;;;;;;58.87;46.27;;;;;;;13.29;48.43;97540.13;5084766;28;20225;-76
2022/12/25 11:47:16;;;;;;;70.30;46.50;;;;;;;13.30;49.29;97539.19;5080701;28;20233;-80
2022/12/25 11:50:19;;;;;;;200.17;110.17;;;;;;;13.35;49.92;97538.09;5085029;28;20198;-78
2022/12/25 11:53:48;;;;;;;362.93;229.57;;;;;;;13.35;48.84;97512.06;5068872;28;20202;-75
2022/12/25 11:57:09;;;;;;;666.27;411.63;;;;;;;13.23;48.96;97517.03;5081847;28;20716;-78
2022/12/25 12:00:02;;;;;;;652.57;387.77;;;;;;;13.33;48.62;97536.47;5084025;28;20199;-79
2022/12/25 12:02:46;;;;;;;222.70;114.97;;;;;;;13.41;49.53;97534.34;5085240;28;20670;-78
2022/12/25 12:05:58;;;;;;;101.33;54.37;;;;;;;13.63;49.02;97537.56;5087793;28;20224;-81
2022/12/25 12:09:28;;;;;;;191.77;100.67;;;;;;;13.63;48.83;97527.13;5084509;28;20187;-79
2022/12/25 12:12:39;;;;;;;462.50;277.87;;;;;;;13.69;48.03;97537.25;5070371;28;20200;-80
2022/12/25 12:16:18;;;;;;;413.57;248.33;;;;;;;13.41;48.84;97523.94;5069897;28;20264;-80
2022/12/25 12:19:44;;;;;;;472.93;274.13;;;;;;;13.22;49.06;97490.16;5087946;28;20191;-80
2022/12/25 12:22:27;;;;;;;661.40;377.53;;;;;;;13.64;49.56;97528.84;5088394;28;20182;-78
2022/12/25 12:25:15;;;;;;;280.40;171.33;;;;;;;13.67;48.26;97531.28;5090931;28;20316;-78
2022/12/25 12:27:43;;;;;;;425.17;264.37;;;;;;;13.29;48.42;97491.53;5090231;28;20208;-79
2022/12/25 12:30:36;;;;;;;658.80;446.43;;;;;;;13.59;48.68;97531.66;5090610;28;20190;-78
2022/12/25 12:33:06;;;;;;;500.57;291.80;;;;;;;13.54;48.02;97530.22;5088349;28;20634;-75
2022/12/25 12:35:37;;;;;;;460.43;257.57;;;;;;;13.46;48.10;97534.94;5089924;28;20375;-82
2022/12/25 12:38:16;;;;;;;386.27;200.47;;;;;;;13.44;49.15;97527.22;5089588;28;20198;-80
2022/12/25 12:40:49;;;;;;;1021.40;557.93;;;;;;;13.44;49.11;97527.22;5067585;28;20687;-82
2022/12/25 12:43:43;;;;;;;1164.33;523.47;;;;;;;13.53;49.26;97529.38;5068766;28;20226;-83
2022/12/25 12:46:16;;;;;;;872.73;440.10;;;;;;;13.61;48.62;97537.63;5070296;28;20315;-80
2022/12/25 12:48:47;;;;;;;849.17;430.90;;;;;;;13.55;47.96;97531.88;5069169;28;20613;-82
2022/12/25 12:51:30;;;;;;;588.93;341.57;;;;;;;13.53;49.27;97544.97;5068888;28;20193;-81
2022/12/25 12:54:28;;;;;;;14.13;5.83;;;;;;;13.48;48.09;97559.13;5067984;28;20204;-77
2022/12/25 12:57:05;;;;;;;3.17;1.70;;;;;;;13.27;48.64;97554.97;5067584;28;20876;-79
2022/12/25 12:59:38;;;;;;;1.60;1.50;;;;;;;13.11;48.09;97546.22;5067817;28;20250;-79
2022/12/25 13:02:24;;;;;;;1.93;1.40;;;;;;;13.04;49.21;97549.09;5067082;28;20671;-78
2022/12/25 13:04:59;;;;;;;2.17;1.43;;;;;;;13.01;48.96;97554.41;5064962;28;20233;-79
2022/12/25 13:07:34;;;;;;;1.47;1.37;;;;;;;12.91;49.00;97555.78;5067661;28;20657;-78
2022/12/25 13:10:40;;;;;;;3.47;1.77;;;;;;;12.93;49.40;97563.50;5066415;28;20673;-76
2022/12/25 13:13:48;;;;;;;4.80;1.93;;;;;;;12.99;49.79;97564.06;5064604;28;20226;-78
2022/12/25 13:16:43;;;;;;;3.00;1.73;;;;;;;12.91;49.77;97558.38;5065437;28;20210;-78
2022/12/25 13:19:15;;;;;;;2.43;1.70;;;;;;;12.82;49.90;97550.97;5065078;28;20205;-78
2022/12/25 13:21:52;;;;;;;5.63;1.60;;;;;;;12.78;50.37;97564.19;5067681;28;20209;-77
2022/12/25 13:24:21;;;;;;;3.70;1.50;;;;;;;12.79;50.07;97565.88;5067264;28;20685;-80
2022/12/25 13:26:49;;;;;;;2.30;1.53;;;;;;;12.76;50.65;97566.00;5065122;28;20284;-79
2022/12/25 13:29:32;;;;;;;4.93;1.90;;;;;;;12.76;50.30;97582.47;5067520;28;20196;-78
2022/12/25 13:32:01;;;;;;;5.10;3.53;;;;;;;12.76;50.93;97568.63;5052632;28;20258;-79
2022/12/25 13:34:37;;;;;;;4.70;3.87;;;;;;;12.82;50.74;97581.31;5047883;28;20227;-76
2022/12/25 13:37:12;;;;;;;3.47;2.73;;;;;;;12.78;50.67;97585.84;5056705;28;20248;-78
2022/12/25 13:40:05;;;;;;;7.80;2.10;;;;;;;12.73;50.36;97581.75;5067565;28;20200;-78
2022/12/25 13:42:36;;;;;;;2.97;1.70;;;;;;;12.77;50.63;97584.16;5087138;28;20239;-79
2022/12/25 13:45:24;;;;;;;3.90;2.00;;;;;;;12.81;51.04;97579.66;5086018;28;20249;-79
2022/12/25 13:47:51;;;;;;;2.57;1.90;;;;;;;12.65;51.09;97571.69;5067280;28;20202;-79
2022/12/25 13:50:31;;;;;;;3.27;2.37;;;;;;;12.72;51.86;97587.88;5067289;28;20222;-78
2022/12/25 13:53:15;;;;;;;1.97;1.50;;;;;;;12.57;51.78;97593.78;5075091;28;20201;-78
2022/12/25 13:55:46;;;;;;;3.23;1.73;;;;;;;12.49;51.53;97583.69;5076816;28;20277;-78
2022/12/25 13:58:22;;;;;;;2.47;2.00;;;;;;;12.58;52.27;97593.69;5075717;28;20197;-78
2022/12/25 14:00:54;;;;;;;2.97;2.00;;;;;;;12.53;51.65;97589.63;5069285;28;20642;-75